N511WM KCMH-KLOU
Flight info
| Callsign | N511WM |
|---|---|
| Flight time | 0h 51m |
| Altitude | 22000 |
| Route | PKACZ TARRY |
| Aircraft | BE60/L-SDFGRY/C |
Departure
| Time | 2026-04-24 23:38 |
|---|---|
| Airport | John Glenn Columbus International Airport (KCMH) |
Arrival
| Time | 2026-04-25 00:30 |
|---|---|
| Airport | Bowman Field (KLOU) |
| Time | Latitude | Longitude | Altitude | Speed | Heading |
|---|---|---|---|---|---|
| 2026-04-24 23:16 | 39.99696 | -82.89153 | 815 ft | 0 kts | 275° |
| 2026-04-24 23:29 | 39.99695 | -82.89161 | 815 ft | 4 kts | 250° |
| 2026-04-24 23:29 | 39.99664 | -82.89175 | 815 ft | 1 kts | 169° |
| 2026-04-24 23:29 | 39.99662 | -82.89174 | 815 ft | 0 kts | 169° |
| 2026-04-24 23:30 | 39.99661 | -82.89174 | 815 ft | 1 kts | 169° |
| 2026-04-24 23:30 | 39.99627 | -82.89168 | 816 ft | 9 kts | 184° |
| 2026-04-24 23:30 | 39.99538 | -82.89177 | 815 ft | 17 kts | 179° |
| 2026-04-24 23:30 | 39.99437 | -82.89132 | 814 ft | 14 kts | 97° |
| 2026-04-24 23:31 | 39.99431 | -82.88966 | 814 ft | 22 kts | 93° |
| 2026-04-24 23:31 | 39.99428 | -82.88731 | 812 ft | 28 kts | 80° |
| 2026-04-24 23:31 | 39.99405 | -82.88451 | 813 ft | 33 kts | 96° |
| 2026-04-24 23:31 | 39.99388 | -82.88174 | 815 ft | 25 kts | 94° |
| 2026-04-24 23:32 | 39.99373 | -82.87940 | 817 ft | 24 kts | 94° |
| 2026-04-24 23:32 | 39.99362 | -82.87738 | 819 ft | 22 kts | 94° |
| 2026-04-24 23:32 | 39.99351 | -82.87542 | 819 ft | 22 kts | 94° |
| 2026-04-24 23:32 | 39.99339 | -82.87348 | 818 ft | 15 kts | 101° |
| 2026-04-24 23:33 | 39.99302 | -82.87310 | 818 ft | 9 kts | 205° |
| 2026-04-24 23:33 | 39.99294 | -82.87318 | 817 ft | 0 kts | 226° |
| 2026-04-24 23:36 | 39.99279 | -82.87324 | 817 ft | 7 kts | 184° |
| 2026-04-24 23:37 | 39.99223 | -82.87328 | 817 ft | 9 kts | 183° |
| 2026-04-24 23:37 | 39.99169 | -82.87364 | 817 ft | 10 kts | 246° |
| 2026-04-24 23:37 | 39.99204 | -82.88137 | 829 ft | 90 kts | 269° |
| 2026-04-24 23:38 | 39.99311 | -82.88998 | 1097 ft | 95 kts | 270° |
| 2026-04-24 23:38 | 39.99405 | -82.89921 | 1382 ft | 111 kts | 270° |
| 2026-04-24 23:38 | 39.99455 | -82.90971 | 1682 ft | 121 kts | 270° |
| 2026-04-24 23:38 | 39.99460 | -82.92120 | 1916 ft | 133 kts | 269° |
| 2026-04-24 23:39 | 39.99460 | -82.93326 | 2374 ft | 131 kts | 268° |
| 2026-04-24 23:39 | 39.99311 | -82.94488 | 2809 ft | 134 kts | 244° |
| 2026-04-24 23:39 | 39.98717 | -82.95421 | 3147 ft | 133 kts | 221° |
| 2026-04-24 23:39 | 39.98037 | -82.96223 | 3430 ft | 134 kts | 226° |
| 2026-04-24 23:40 | 39.97376 | -82.97095 | 3733 ft | 134 kts | 229° |
| 2026-04-24 23:40 | 39.96786 | -82.98028 | 4059 ft | 135 kts | 233° |
| 2026-04-24 23:40 | 39.96202 | -82.98999 | 4339 ft | 137 kts | 233° |
| 2026-04-24 23:40 | 39.95611 | -82.99973 | 4666 ft | 137 kts | 231° |
| 2026-04-24 23:41 | 39.95008 | -83.00932 | 5001 ft | 137 kts | 232° |
| 2026-04-24 23:41 | 39.94419 | -83.01898 | 5329 ft | 136 kts | 232° |
| 2026-04-24 23:41 | 39.93823 | -83.02866 | 5660 ft | 137 kts | 231° |
| 2026-04-24 23:41 | 39.93222 | -83.03838 | 5986 ft | 138 kts | 231° |
| 2026-04-24 23:42 | 39.92615 | -83.04812 | 6308 ft | 139 kts | 231° |
| 2026-04-24 23:42 | 39.92003 | -83.05793 | 6607 ft | 139 kts | 231° |
| 2026-04-24 23:42 | 39.91400 | -83.06763 | 6923 ft | 140 kts | 231° |
| 2026-04-24 23:42 | 39.90786 | -83.07749 | 7242 ft | 141 kts | 231° |
| 2026-04-24 23:43 | 39.90164 | -83.08748 | 7570 ft | 142 kts | 231° |
| 2026-04-24 23:43 | 39.89538 | -83.09749 | 7900 ft | 144 kts | 231° |
| 2026-04-24 23:43 | 39.88908 | -83.10759 | 8236 ft | 144 kts | 230° |
| 2026-04-24 23:43 | 39.88277 | -83.11768 | 8585 ft | 143 kts | 231° |
| 2026-04-24 23:44 | 39.87653 | -83.12771 | 8942 ft | 142 kts | 230° |
| 2026-04-24 23:44 | 39.87030 | -83.13769 | 9291 ft | 142 kts | 231° |
| 2026-04-24 23:44 | 39.86406 | -83.14766 | 9654 ft | 143 kts | 230° |
| 2026-04-24 23:44 | 39.85777 | -83.15772 | 9990 ft | 143 kts | 231° |
| 2026-04-24 23:45 | 39.85161 | -83.16762 | 10316 ft | 142 kts | 230° |
| 2026-04-24 23:45 | 39.84535 | -83.17762 | 10649 ft | 143 kts | 230° |
| 2026-04-24 23:45 | 39.83907 | -83.18763 | 10980 ft | 143 kts | 230° |
| 2026-04-24 23:45 | 39.83278 | -83.19767 | 11307 ft | 144 kts | 230° |
| 2026-04-24 23:46 | 39.82647 | -83.20778 | 11631 ft | 144 kts | 230° |
| 2026-04-24 23:46 | 39.82017 | -83.21785 | 11964 ft | 144 kts | 231° |
| 2026-04-24 23:46 | 39.81388 | -83.22790 | 12284 ft | 143 kts | 230° |
| 2026-04-24 23:46 | 39.80753 | -83.23796 | 12626 ft | 144 kts | 231° |
| 2026-04-24 23:47 | 39.80119 | -83.24805 | 12967 ft | 144 kts | 231° |
| 2026-04-24 23:47 | 39.79487 | -83.25825 | 13299 ft | 145 kts | 231° |
| 2026-04-24 23:47 | 39.78853 | -83.26836 | 13639 ft | 145 kts | 231° |
| 2026-04-24 23:47 | 39.78216 | -83.27853 | 13936 ft | 145 kts | 231° |
| 2026-04-24 23:48 | 39.77572 | -83.28876 | 14236 ft | 147 kts | 231° |
| 2026-04-24 23:48 | 39.76930 | -83.29900 | 14558 ft | 146 kts | 232° |
| 2026-04-24 23:48 | 39.76295 | -83.30911 | 14857 ft | 146 kts | 232° |
| 2026-04-24 23:48 | 39.75649 | -83.31934 | 15157 ft | 147 kts | 232° |
| 2026-04-24 23:49 | 39.75007 | -83.32960 | 15485 ft | 146 kts | 232° |
| 2026-04-24 23:49 | 39.74364 | -83.33984 | 15779 ft | 147 kts | 232° |
| 2026-04-24 23:49 | 39.73714 | -83.35018 | 16071 ft | 148 kts | 232° |
| 2026-04-24 23:49 | 39.73054 | -83.36067 | 16333 ft | 152 kts | 232° |
| 2026-04-24 23:50 | 39.72378 | -83.37141 | 16609 ft | 154 kts | 232° |
| 2026-04-24 23:50 | 39.71698 | -83.38224 | 16907 ft | 155 kts | 232° |
| 2026-04-24 23:50 | 39.71008 | -83.39319 | 17201 ft | 157 kts | 233° |
| 2026-04-24 23:50 | 39.70313 | -83.40425 | 17450 ft | 162 kts | 233° |
| 2026-04-24 23:51 | 39.69585 | -83.41582 | 17655 ft | 168 kts | 233° |
| 2026-04-24 23:51 | 39.68832 | -83.42775 | 17886 ft | 173 kts | 233° |
| 2026-04-24 23:51 | 39.68062 | -83.43998 | 18132 ft | 177 kts | 233° |
| 2026-04-24 23:51 | 39.67275 | -83.45244 | 18345 ft | 180 kts | 233° |
| 2026-04-24 23:52 | 39.66477 | -83.46510 | 18568 ft | 182 kts | 233° |
| 2026-04-24 23:52 | 39.65669 | -83.47791 | 18804 ft | 184 kts | 233° |
| 2026-04-24 23:52 | 39.64855 | -83.49078 | 19040 ft | 185 kts | 233° |
| 2026-04-24 23:52 | 39.64037 | -83.50372 | 19283 ft | 186 kts | 233° |
| 2026-04-24 23:53 | 39.63234 | -83.51669 | 19521 ft | 187 kts | 232° |
| 2026-04-24 23:53 | 39.62379 | -83.52951 | 19757 ft | 188 kts | 232° |
| 2026-04-24 23:53 | 39.61522 | -83.54241 | 20021 ft | 189 kts | 232° |
| 2026-04-24 23:53 | 39.60677 | -83.55533 | 20295 ft | 187 kts | 232° |
| 2026-04-24 23:54 | 39.59838 | -83.56817 | 20559 ft | 186 kts | 232° |
| 2026-04-24 23:54 | 39.59004 | -83.58091 | 20810 ft | 185 kts | 233° |
| 2026-04-24 23:54 | 39.58176 | -83.59358 | 21057 ft | 184 kts | 233° |
| 2026-04-24 23:54 | 39.57352 | -83.60617 | 21292 ft | 183 kts | 233° |
| 2026-04-24 23:55 | 39.56529 | -83.61875 | 21523 ft | 183 kts | 233° |
| 2026-04-24 23:55 | 39.55710 | -83.63125 | 21753 ft | 182 kts | 233° |
| 2026-04-24 23:55 | 39.54874 | -83.64404 | 21814 ft | 190 kts | 233° |
| 2026-04-24 23:55 | 39.53993 | -83.65751 | 21828 ft | 201 kts | 233° |
| 2026-04-24 23:56 | 39.53059 | -83.67171 | 21829 ft | 212 kts | 232° |
| 2026-04-24 23:56 | 39.52087 | -83.68656 | 21831 ft | 220 kts | 233° |
| 2026-04-24 23:56 | 39.51077 | -83.70198 | 21830 ft | 228 kts | 232° |
| 2026-04-24 23:56 | 39.50033 | -83.71786 | 21836 ft | 235 kts | 232° |
| 2026-04-24 23:57 | 39.48964 | -83.73414 | 21832 ft | 240 kts | 232° |
| 2026-04-24 23:57 | 39.47870 | -83.75078 | 21831 ft | 244 kts | 232° |
| 2026-04-24 23:57 | 39.46762 | -83.76764 | 21834 ft | 248 kts | 232° |
| 2026-04-24 23:57 | 39.45638 | -83.78471 | 21832 ft | 251 kts | 232° |
| 2026-04-24 23:58 | 39.44503 | -83.80196 | 21832 ft | 253 kts | 232° |
| 2026-04-24 23:58 | 39.43371 | -83.81914 | 21831 ft | 255 kts | 232° |
| 2026-04-24 23:58 | 39.42217 | -83.83664 | 21832 ft | 257 kts | 232° |
| 2026-04-24 23:58 | 39.41040 | -83.85449 | 21821 ft | 258 kts | 232° |
| 2026-04-24 23:59 | 39.39887 | -83.87196 | 21823 ft | 259 kts | 232° |
| 2026-04-24 23:59 | 39.38699 | -83.88996 | 21826 ft | 260 kts | 232° |
| 2026-04-24 23:59 | 39.37536 | -83.90757 | 21826 ft | 261 kts | 232° |
| 2026-04-24 23:59 | 39.36356 | -83.92540 | 21804 ft | 262 kts | 232° |
| 2026-04-25 00:00 | 39.35176 | -83.94328 | 21806 ft | 261 kts | 232° |
| 2026-04-25 00:00 | 39.33993 | -83.96114 | 21808 ft | 261 kts | 232° |
| 2026-04-25 00:00 | 39.32813 | -83.97895 | 21811 ft | 261 kts | 232° |
| 2026-04-25 00:00 | 39.31635 | -83.99673 | 21810 ft | 260 kts | 232° |
| 2026-04-25 00:01 | 39.30455 | -84.01453 | 21806 ft | 260 kts | 232° |
| 2026-04-25 00:01 | 39.29277 | -84.03231 | 21805 ft | 261 kts | 232° |
| 2026-04-25 00:01 | 39.28097 | -84.05007 | 21805 ft | 261 kts | 232° |
| 2026-04-25 00:01 | 39.26917 | -84.06784 | 21802 ft | 261 kts | 232° |
| 2026-04-25 00:02 | 39.25737 | -84.08560 | 21802 ft | 261 kts | 232° |
| 2026-04-25 00:02 | 39.24557 | -84.10336 | 21805 ft | 261 kts | 232° |
| 2026-04-25 00:02 | 39.23371 | -84.12119 | 21806 ft | 261 kts | 232° |
| 2026-04-25 00:02 | 39.22189 | -84.13894 | 21806 ft | 261 kts | 231° |
| 2026-04-25 00:03 | 39.21004 | -84.15673 | 21810 ft | 261 kts | 231° |
| 2026-04-25 00:03 | 39.19822 | -84.17449 | 21800 ft | 261 kts | 232° |
| 2026-04-25 00:03 | 39.18652 | -84.19204 | 21799 ft | 261 kts | 231° |
| 2026-04-25 00:03 | 39.17466 | -84.20983 | 21798 ft | 261 kts | 231° |
| 2026-04-25 00:04 | 39.16282 | -84.22756 | 21803 ft | 261 kts | 231° |
| 2026-04-25 00:04 | 39.15100 | -84.24526 | 21804 ft | 261 kts | 231° |
| 2026-04-25 00:04 | 39.13915 | -84.26301 | 21802 ft | 262 kts | 231° |
| 2026-04-25 00:04 | 39.12726 | -84.28080 | 21804 ft | 261 kts | 231° |
| 2026-04-25 00:05 | 39.11939 | -84.29256 | 21813 ft | 261 kts | 231° |
| 2026-04-25 00:05 | 39.10363 | -84.31610 | 21814 ft | 261 kts | 231° |
| 2026-04-25 00:05 | 39.09559 | -84.32810 | 21814 ft | 261 kts | 231° |
| 2026-04-25 00:05 | 39.08388 | -84.34559 | 21813 ft | 261 kts | 231° |
| 2026-04-25 00:06 | 39.07201 | -84.36328 | 21812 ft | 261 kts | 231° |
| 2026-04-25 00:06 | 39.06015 | -84.38097 | 21842 ft | 261 kts | 231° |
| 2026-04-25 00:06 | 39.04827 | -84.39868 | 21842 ft | 261 kts | 231° |
| 2026-04-25 00:06 | 39.03641 | -84.41635 | 21840 ft | 261 kts | 231° |
| 2026-04-25 00:07 | 39.02452 | -84.43404 | 21841 ft | 261 kts | 231° |
| 2026-04-25 00:07 | 39.01266 | -84.45169 | 21842 ft | 261 kts | 231° |
| 2026-04-25 00:07 | 39.00079 | -84.46935 | 21837 ft | 261 kts | 231° |
| 2026-04-25 00:07 | 38.98891 | -84.48699 | 21827 ft | 261 kts | 231° |
| 2026-04-25 00:08 | 38.97703 | -84.50465 | 21824 ft | 261 kts | 231° |
| 2026-04-25 00:08 | 38.96514 | -84.52230 | 21833 ft | 261 kts | 231° |
| 2026-04-25 00:08 | 38.95322 | -84.53999 | 21791 ft | 263 kts | 231° |
| 2026-04-25 00:08 | 38.94098 | -84.55817 | 21441 ft | 275 kts | 231° |
| 2026-04-25 00:09 | 38.92825 | -84.57703 | 21061 ft | 285 kts | 231° |
| 2026-04-25 00:09 | 38.91510 | -84.59651 | 20666 ft | 291 kts | 231° |
| 2026-04-25 00:09 | 38.90182 | -84.61617 | 20275 ft | 290 kts | 230° |
| 2026-04-25 00:09 | 38.88884 | -84.63535 | 19890 ft | 286 kts | 230° |
| 2026-04-25 00:10 | 38.87584 | -84.65458 | 19504 ft | 283 kts | 230° |
| 2026-04-25 00:10 | 38.86302 | -84.67351 | 19138 ft | 279 kts | 230° |
| 2026-04-25 00:10 | 38.85033 | -84.69226 | 18761 ft | 276 kts | 230° |
| 2026-04-25 00:10 | 38.83781 | -84.71073 | 18393 ft | 273 kts | 230° |
| 2026-04-25 00:11 | 38.82544 | -84.72898 | 18022 ft | 270 kts | 230° |
| 2026-04-25 00:11 | 38.81317 | -84.74705 | 17596 ft | 267 kts | 230° |
| 2026-04-25 00:11 | 38.80107 | -84.76489 | 17200 ft | 263 kts | 230° |
| 2026-04-25 00:11 | 38.78907 | -84.78252 | 16781 ft | 262 kts | 229° |
| 2026-04-25 00:12 | 38.77710 | -84.80012 | 16389 ft | 261 kts | 229° |
| 2026-04-25 00:12 | 38.76520 | -84.81765 | 15987 ft | 261 kts | 229° |
| 2026-04-25 00:12 | 38.75343 | -84.83495 | 15620 ft | 261 kts | 229° |
| 2026-04-25 00:12 | 38.74141 | -84.85260 | 15251 ft | 263 kts | 229° |
| 2026-04-25 00:13 | 38.72941 | -84.87022 | 15003 ft | 261 kts | 229° |
| 2026-04-25 00:13 | 38.71755 | -84.88762 | 14769 ft | 258 kts | 229° |
| 2026-04-25 00:13 | 38.70575 | -84.90494 | 14487 ft | 257 kts | 228° |
| 2026-04-25 00:13 | 38.69399 | -84.92217 | 14198 ft | 257 kts | 228° |
| 2026-04-25 00:14 | 38.68227 | -84.93936 | 13906 ft | 256 kts | 228° |
| 2026-04-25 00:14 | 38.67051 | -84.95657 | 13566 ft | 257 kts | 228° |
| 2026-04-25 00:14 | 38.65871 | -84.97383 | 13193 ft | 257 kts | 228° |
| 2026-04-25 00:14 | 38.64696 | -84.99105 | 12845 ft | 256 kts | 228° |
| 2026-04-25 00:15 | 38.63530 | -85.00811 | 12493 ft | 254 kts | 227° |
| 2026-04-25 00:15 | 38.62365 | -85.02508 | 12144 ft | 253 kts | 228° |
| 2026-04-25 00:15 | 38.61213 | -85.04193 | 11806 ft | 251 kts | 228° |
| 2026-04-25 00:15 | 38.60065 | -85.05863 | 11479 ft | 248 kts | 227° |
| 2026-04-25 00:16 | 38.58946 | -85.07495 | 11140 ft | 246 kts | 227° |
| 2026-04-25 00:16 | 38.57829 | -85.09137 | 10798 ft | 244 kts | 227° |
| 2026-04-25 00:16 | 38.56713 | -85.10756 | 10463 ft | 243 kts | 227° |
| 2026-04-25 00:16 | 38.55600 | -85.12372 | 10142 ft | 240 kts | 227° |
| 2026-04-25 00:17 | 38.54505 | -85.13967 | 9810 ft | 238 kts | 227° |
| 2026-04-25 00:17 | 38.53413 | -85.15559 | 9461 ft | 236 kts | 227° |
| 2026-04-25 00:17 | 38.52335 | -85.17124 | 9104 ft | 235 kts | 227° |
| 2026-04-25 00:17 | 38.51261 | -85.18677 | 8758 ft | 229 kts | 228° |
| 2026-04-25 00:18 | 38.50231 | -85.20178 | 8436 ft | 220 kts | 228° |
| 2026-04-25 00:18 | 38.49241 | -85.21621 | 8164 ft | 212 kts | 228° |
| 2026-04-25 00:18 | 38.48277 | -85.23020 | 7877 ft | 207 kts | 227° |
| 2026-04-25 00:18 | 38.47334 | -85.24386 | 7586 ft | 203 kts | 227° |
| 2026-04-25 00:19 | 38.46405 | -85.25731 | 7311 ft | 201 kts | 227° |
| 2026-04-25 00:19 | 38.45487 | -85.27063 | 7020 ft | 198 kts | 228° |
| 2026-04-25 00:19 | 38.44591 | -85.28362 | 6762 ft | 197 kts | 228° |
| 2026-04-25 00:19 | 38.43690 | -85.29667 | 6489 ft | 195 kts | 228° |
| 2026-04-25 00:20 | 38.42796 | -85.30961 | 6209 ft | 194 kts | 228° |
| 2026-04-25 00:20 | 38.41904 | -85.32252 | 5920 ft | 194 kts | 228° |
| 2026-04-25 00:20 | 38.41016 | -85.33538 | 5642 ft | 193 kts | 228° |
| 2026-04-25 00:20 | 38.40131 | -85.34816 | 5368 ft | 192 kts | 229° |
| 2026-04-25 00:21 | 38.39248 | -85.36093 | 5094 ft | 191 kts | 228° |
| 2026-04-25 00:21 | 38.38371 | -85.37362 | 4831 ft | 190 kts | 228° |
| 2026-04-25 00:21 | 38.37497 | -85.38623 | 4559 ft | 189 kts | 228° |
| 2026-04-25 00:21 | 38.36626 | -85.39879 | 4280 ft | 189 kts | 229° |
| 2026-04-25 00:22 | 38.35760 | -85.41129 | 3990 ft | 188 kts | 229° |
| 2026-04-25 00:22 | 38.34918 | -85.42345 | 3700 ft | 179 kts | 229° |
| 2026-04-25 00:22 | 38.34114 | -85.43501 | 3424 ft | 171 kts | 230° |
| 2026-04-25 00:22 | 38.33343 | -85.44618 | 3109 ft | 164 kts | 231° |
| 2026-04-25 00:23 | 38.32610 | -85.45675 | 2968 ft | 149 kts | 229° |
| 2026-04-25 00:23 | 38.31968 | -85.46594 | 2972 ft | 131 kts | 231° |
| 2026-04-25 00:23 | 38.31513 | -85.47499 | 2963 ft | 110 kts | 242° |
| 2026-04-25 00:23 | 38.31146 | -85.48294 | 2976 ft | 102 kts | 240° |
| 2026-04-25 00:24 | 38.30798 | -85.49061 | 2977 ft | 101 kts | 239° |
| 2026-04-25 00:24 | 38.30441 | -85.49835 | 2987 ft | 102 kts | 239° |
| 2026-04-25 00:24 | 38.30075 | -85.50633 | 2986 ft | 106 kts | 238° |
| 2026-04-25 00:24 | 38.29697 | -85.51451 | 2991 ft | 108 kts | 239° |
| 2026-04-25 00:25 | 38.29307 | -85.52294 | 2891 ft | 114 kts | 239° |
| 2026-04-25 00:25 | 38.28911 | -85.53158 | 2751 ft | 109 kts | 239° |
| 2026-04-25 00:25 | 38.28541 | -85.53963 | 2605 ft | 104 kts | 238° |
| 2026-04-25 00:25 | 38.28172 | -85.54761 | 2472 ft | 104 kts | 239° |
| 2026-04-25 00:26 | 38.27809 | -85.55547 | 2343 ft | 101 kts | 238° |
| 2026-04-25 00:26 | 38.27472 | -85.56280 | 2218 ft | 90 kts | 240° |
| 2026-04-25 00:26 | 38.27171 | -85.56925 | 2097 ft | 83 kts | 240° |
| 2026-04-25 00:26 | 38.26881 | -85.57560 | 1991 ft | 84 kts | 238° |
| 2026-04-25 00:27 | 38.26577 | -85.58212 | 1884 ft | 87 kts | 241° |
| 2026-04-25 00:27 | 38.26275 | -85.58860 | 1775 ft | 84 kts | 239° |
| 2026-04-25 00:27 | 38.25983 | -85.59494 | 1656 ft | 83 kts | 243° |
| 2026-04-25 00:27 | 38.25695 | -85.60124 | 1551 ft | 82 kts | 244° |
| 2026-04-25 00:28 | 38.25395 | -85.60774 | 1457 ft | 87 kts | 240° |
| 2026-04-25 00:28 | 38.25078 | -85.61450 | 1329 ft | 88 kts | 243° |
| 2026-04-25 00:28 | 38.24765 | -85.62132 | 1217 ft | 91 kts | 241° |
| 2026-04-25 00:28 | 38.24449 | -85.62815 | 1092 ft | 89 kts | 239° |
| 2026-04-25 00:29 | 38.24130 | -85.63500 | 989 ft | 93 kts | 240° |
| 2026-04-25 00:29 | 38.23798 | -85.64216 | 852 ft | 92 kts | 244° |
| 2026-04-25 00:29 | 38.23472 | -85.64919 | 727 ft | 93 kts | 239° |
| 2026-04-25 00:29 | 38.23152 | -85.65616 | 591 ft | 85 kts | 245° |
| 2026-04-25 00:30 | 38.22908 | -85.66163 | 551 ft | 58 kts | 243° |
| 2026-04-25 00:30 | 38.22732 | -85.66544 | 550 ft | 42 kts | 238° |
| 2026-04-25 00:30 | 38.22618 | -85.66782 | 549 ft | 13 kts | 231° |
| 2026-04-25 00:30 | 38.22558 | -85.66775 | 549 ft | 3 kts | 152° |
| 2026-04-25 00:31 | 38.22528 | -85.66751 | 549 ft | 6 kts | 148° |
| 2026-04-25 00:31 | 38.22507 | -85.66734 | 549 ft | 6 kts | 147° |
| 2026-04-25 00:31 | 38.22487 | -85.66687 | 549 ft | 9 kts | 20° |
| 2026-04-25 00:31 | 38.22525 | -85.66720 | 549 ft | 4 kts | 335° |
| 2026-04-25 00:32 | 38.22537 | -85.66726 | 549 ft | 0 kts | 328° |
| 2026-04-25 00:32 | 38.22538 | -85.66727 | 549 ft | 0 kts | 328° |
| 2026-04-25 00:32 | 38.22539 | -85.66727 | 549 ft | 0 kts | 328° |